»·PEaware :: N364CM KAVX-KSAN

N364CM :: KAVX-KSAN

FLIGHT INFORMATION

Flight Status: Arrived
Operator: Privately registered:
United States
More flights under this callsign
Pilot: Brian S. (32023)
Aircraft: BEECH AIRCRAFT SUPER KING AIR 350
(B350)
More flights by this aircraft type
Origin: KAVX Catalina
United States
Destination: KSAN San Diego Intl-Lindbergh
United States
More flights between these airports :: More routes between these airports
Route: SXC V208 LAX118 CARDI MZB320 MZB
File this flight plan on PilotEdge
Remarks: TEC ROUTE CSTP54
Altitude:
(Current/Filed)
9,000ft
Speed:
(Current/Filed)
260kts
Departed: 12-Dec-20 05:06 PM
Arrived: 12-Dec-20 05:44 PM
Distance/Time
Traveled:
74nm/0:37
Distance/Time
To Go:
Arrived

Flight Plot

Page will automatically refresh every two minutes.


Map Options




Map Legend


Flown Route
Filed Route
Departure Airport
Arrival Airport
Navaid (VOR, NDB)
Fix

Horizontal Profiles

Position Reports

Time Latitude Longitude Heading Altitude Ground
Speed
12-Dec-20 16:49 33.403970 -118.415176 146 1547ft 0kts
12-Dec-20 16:50 33.403970 -118.415176 146 1547ft 0kts
12-Dec-20 16:51 33.403970 -118.415176 146 1547ft 0kts
12-Dec-20 16:52 33.403970 -118.415176 146 1547ft 0kts
12-Dec-20 16:53 33.403970 -118.415176 146 1547ft 0kts
12-Dec-20 16:54 33.403970 -118.415176 146 1547ft 0kts
12-Dec-20 16:55 33.403970 -118.415176 146 1547ft 0kts
12-Dec-20 16:56 33.403970 -118.415176 146 1547ft 0kts
12-Dec-20 16:57 33.403970 -118.415176 146 1547ft 0kts
12-Dec-20 16:58 33.403970 -118.415176 146 1547ft 0kts
12-Dec-20 16:59 33.403970 -118.415176 146 1547ft 0kts
12-Dec-20 17:00 33.403970 -118.415176 146 1547ft 0kts
12-Dec-20 17:01 33.404976 -118.414930 27 1543ft 11kts
12-Dec-20 17:02 33.407105 -118.411515 52 1502ft 4kts
12-Dec-20 17:03 33.407128 -118.411478 52 1501ft 0kts
12-Dec-20 17:04 33.407128 -118.411478 52 1501ft 0kts
12-Dec-20 17:05 33.403844 -118.417751 238 1558ft 100kts
12-Dec-20 17:06 33.376159 -118.447423 176 2014ft 174kts
12-Dec-20 17:07 33.359022 -118.401369 75 3045ft 178kts
12-Dec-20 17:08 33.363737 -118.343216 97 4087ft 180kts
12-Dec-20 17:09 33.356548 -118.283331 97 5081ft 183kts
12-Dec-20 17:10 33.349297 -118.222891 99 5961ft 184kts
12-Dec-20 17:11 33.341333 -118.162355 99 6731ft 185kts
12-Dec-20 17:12 33.333267 -118.101452 99 7458ft 186kts
12-Dec-20 17:13 33.325134 -118.040211 99 8142ft 187kts
12-Dec-20 17:14 33.316921 -117.978616 99 8775ft 188kts
12-Dec-20 17:15 33.308167 -117.913275 99 8901ft 212kts
12-Dec-20 17:16 33.298261 -117.839673 99 8896ft 233kts
12-Dec-20 17:17 33.287683 -117.761448 99 8893ft 242kts
12-Dec-20 17:18 33.275844 -117.681507 100 8890ft 244kts
12-Dec-20 17:19 33.263747 -117.601464 100 8890ft 244kts
12-Dec-20 17:21 33.227213 -117.535716 133 8891ft 244kts
12-Dec-20 17:22 33.180429 -117.476860 133 8879ft 244kts
12-Dec-20 17:23 33.132084 -117.419939 153 8856ft 245kts
12-Dec-20 17:24 33.070962 -117.385431 154 8879ft 244kts
12-Dec-20 17:25 33.012180 -117.346565 123 8866ft 244kts
12-Dec-20 17:26 32.977166 -117.277358 121 8879ft 244kts
12-Dec-20 17:27 32.942180 -117.208038 121 8879ft 244kts
12-Dec-20 17:28 32.907152 -117.138603 121 8879ft 244kts
12-Dec-20 17:29 32.872014 -117.068921 121 8879ft 245kts
12-Dec-20 17:30 32.837043 -116.999537 121 8879ft 245kts
12-Dec-20 17:31 32.802093 -116.930167 120 8879ft 245kts
12-Dec-20 17:32 32.767054 -116.860585 120 8879ft 245kts
12-Dec-20 17:33 32.732131 -116.791205 120 8880ft 245kts
12-Dec-20 17:34 32.684643 -116.743120 191 8278ft 234kts
12-Dec-20 17:35 32.653577 -116.800943 251 6780ft 208kts
12-Dec-20 17:36 32.642637 -116.860256 296 5304ft 172kts
12-Dec-20 17:36 32.659012 -116.899696 296 4886ft 156kts
12-Dec-20 17:38 32.676831 -116.957960 286 4615ft 160kts
12-Dec-20 17:38 32.686959 -116.998528 286 3331ft 149kts
12-Dec-20 17:40 32.700380 -117.053338 286 2438ft 155kts
12-Dec-20 17:41 32.712035 -117.101191 286 1902ft 131kts
12-Dec-20 17:41 32.721467 -117.139228 286 1160ft 156kts
12-Dec-20 17:42 32.731448 -117.180940 286 23ft 94kts
12-Dec-20 17:43 32.734216 -117.188162 1 22ft 0kts
12-Dec-20 17:44 32.734311 -117.188157 2 22ft 0kts
12-Dec-20 17:45 32.735385 -117.188824 273 22ft 9kts
12-Dec-20 17:46 32.735184 -117.189057 199 22ft 0kts
12-Dec-20 17:47 32.735184 -117.189057 199 22ft 0kts
12-Dec-20 17:48 32.735184 -117.189057 199 22ft 0kts
12-Dec-20 17:49 32.735184 -117.189057 199 22ft 0kts
12-Dec-20 17:50 32.735184 -117.189057 199 22ft 0kts
12-Dec-20 17:51 32.735184 -117.189057 199 22ft 0kts
12-Dec-20 17:52 32.735184 -117.189057 199 22ft 0kts
12-Dec-20 17:53 32.735184 -117.189057 199 22ft 0kts
12-Dec-20 17:54 32.735184 -117.189057 199 22ft 0kts

Navigation Log

Ident Type
Flight plan parsing failed, navigation log unavailable